LFBE

Bergerac-Roumanière Airport

Airport
ICAO code
LFBE
IATA Code
EGC
Summary
ICAO Region
EUR
ICAO Territory
Location

, Aquitaine

Serving
Bergerac
Elevation
171 ft
Coordinates
44° 49' 31" N , 0° 31' 7" E
Metar
Observation
LFBE 030100Z AUTO VRB02KT 9999 BKN042 OVC048 04/03 Q1012
Station
Bergerac
Date/Time
2022-12-03 01:00:00
Wind speed
02 kts
Lowest cloud amount
broken clouds
Temperature
4°C
Dew point
3°C
Humidity
93%
QNH
1012 hPa
Weather condition
n/a

Runways

Designator Length Width Surface Rops
10/28 2205 45 ASP Yes/Yes

Airport map

Aerial View

SKYbrary Partners:

Safety knowledge contributed by: